Time;durP1;ratioP1;P1;durP2;ratioP2;P2;SDS_P1;SDS_P2;PMS_P1;PMS_P2;Temp;Humidity;BMP_temperature;BMP_pressure;BME280_temperature;BME280_humidity;BME280_pressure;Samples;Min_cycle;Max_cycle;Signal;HPM_P1;HPM_P2
2023/03/19 00:00:13;;;;;;;11.30;4.30;;;;;;;10.56;100.00;100411.72;5067862;29;20150;-72
2023/03/19 00:02:50;;;;;;;7.68;4.05;;;;;;;10.57;100.00;100397.75;5078342;29;20414;-72
2023/03/19 00:05:20;;;;;;;6.80;4.05;;;;;;;10.57;100.00;100379.44;5076796;29;20478;-71
2023/03/19 00:07:50;;;;;;;8.25;4.13;;;;;;;10.68;100.00;100390.34;5075446;29;20131;-72
2023/03/19 00:10:20;;;;;;;6.70;3.78;;;;;;;10.59;100.00;100382.84;5078196;29;20024;-72
2023/03/19 00:12:51;;;;;;;7.28;4.20;;;;;;;10.57;100.00;100372.47;5065449;29;20071;-72
2023/03/19 00:15:21;;;;;;;8.55;4.38;;;;;;;10.58;100.00;100379.41;5077878;29;20035;-72
2023/03/19 00:17:53;;;;;;;9.32;3.90;;;;;;;10.63;100.00;100367.00;5073400;29;20032;-72
2023/03/19 00:20:23;;;;;;;8.32;3.90;;;;;;;10.68;100.00;100370.28;5076311;29;20091;-72
2023/03/19 00:22:53;;;;;;;6.10;3.78;;;;;;;10.65;100.00;100380.84;5067971;29;20032;-72
2023/03/19 00:25:23;;;;;;;8.02;3.00;;;;;;;10.58;100.00;100378.53;5078722;29;20035;-72
2023/03/19 00:27:54;;;;;;;5.93;2.90;;;;;;;10.62;100.00;100374.88;5077456;29;20040;-72
2023/03/19 00:30:24;;;;;;;5.22;2.80;;;;;;;10.72;100.00;100376.25;5071641;29;20304;-72
2023/03/19 00:32:55;;;;;;;5.18;2.70;;;;;;;10.75;100.00;100381.34;5067815;29;20028;-72
2023/03/19 00:35:25;;;;;;;5.47;2.55;;;;;;;10.83;100.00;100377.50;5072014;29;20051;-72
2023/03/19 00:37:56;;;;;;;6.32;2.67;;;;;;;10.65;100.00;100374.78;5074351;29;20398;-71
2023/03/19 00:40:26;;;;;;;6.45;2.47;;;;;;;10.77;100.00;100369.94;5077649;29;20039;-73
2023/03/19 00:42:57;;;;;;;7.25;2.35;;;;;;;10.80;100.00;100366.31;5063865;29;20534;-72
2023/03/19 00:45:29;;;;;;;4.22;2.47;;;;;;;10.64;100.00;100362.59;5061411;29;20040;-72
2023/03/19 00:47:59;;;;;;;5.70;2.35;;;;;;;10.64;100.00;100360.84;5075143;29;20032;-72
2023/03/19 00:50:30;;;;;;;3.85;2.20;;;;;;;10.50;100.00;100352.69;5078127;29;20497;-71
2023/03/19 00:53:00;;;;;;;5.07;2.40;;;;;;;10.50;100.00;100351.88;5068961;29;20498;-72
2023/03/19 00:55:30;;;;;;;4.47;1.98;;;;;;;10.59;100.00;100343.66;5077603;29;20538;-72
2023/03/19 00:58:01;;;;;;;3.15;1.60;;;;;;;10.52;100.00;100350.03;5073230;29;20148;-72
2023/03/19 01:00:36;;;;;;;2.88;1.70;;;;;;;10.49;100.00;100345.78;5072584;29;20035;-72
2023/03/19 01:03:06;;;;;;;3.65;1.70;;;;;;;10.38;100.00;100344.50;5078230;29;20036;-71
2023/03/19 01:05:36;;;;;;;4.18;1.60;;;;;;;10.32;100.00;100344.75;5076770;29;20281;-71
2023/03/19 01:08:06;;;;;;;5.80;1.95;;;;;;;10.30;100.00;100351.75;5067655;29;20553;-72
2023/03/19 01:10:37;;;;;;;2.80;1.63;;;;;;;10.40;100.00;100348.75;5076221;29;20035;-72
2023/03/19 01:13:07;;;;;;;5.57;2.05;;;;;;;10.39;100.00;100351.41;5077615;29;20434;-72
2023/03/19 01:15:39;;;;;;;3.45;1.98;;;;;;;10.29;100.00;100350.06;5073966;29;20032;-71
2023/03/19 01:18:10;;;;;;;5.30;1.83;;;;;;;10.34;100.00;100340.31;5064846;29;20063;-72
2023/03/19 01:20:42;;;;;;;3.60;1.80;;;;;;;10.28;100.00;100343.13;5095019;29;20040;-72
2023/03/19 01:23:13;;;;;;;3.70;1.70;;;;;;;10.27;100.00;100347.50;5079144;29;20032;-72
2023/03/19 01:25:44;;;;;;;3.25;1.70;;;;;;;10.27;100.00;100347.50;5076174;29;20422;-72
2023/03/19 01:28:15;;;;;;;3.40;1.70;;;;;;;10.24;100.00;100342.41;5079588;29;20115;-72
2023/03/19 01:30:45;;;;;;;2.85;1.60;;;;;;;10.17;100.00;100332.25;5089385;29;20024;-72
2023/03/19 01:33:15;;;;;;;3.25;1.63;;;;;;;10.21;100.00;100341.66;5101543;28;20088;-72
2023/03/19 01:35:49;;;;;;;3.85;1.98;;;;;;;10.09;100.00;100327.31;5071465;29;20115;-71
2023/03/19 01:38:19;;;;;;;3.20;1.60;;;;;;;10.04;100.00;100344.94;5072108;29;20524;-72
2023/03/19 01:40:49;;;;;;;2.80;1.50;;;;;;;10.04;100.00;100338.84;5078394;29;20131;-72
2023/03/19 01:43:25;;;;;;;2.78;1.35;;;;;;;10.07;100.00;100333.50;5081580;29;20066;-71
2023/03/19 01:46:04;;;;;;;4.25;1.40;;;;;;;10.06;100.00;100343.09;5091568;29;20036;-72
2023/03/19 01:48:58;;;;;;;2.70;1.70;;;;;;;10.09;100.00;100335.16;5074743;29;20455;-72
2023/03/19 01:51:33;;;;;;;4.07;1.95;;;;;;;10.23;100.00;100332.00;5078562;29;20032;-71
2023/03/19 01:54:08;;;;;;;2.60;1.50;;;;;;;10.37;100.00;100332.34;5081679;29;20028;-72
2023/03/19 01:56:39;;;;;;;2.78;1.40;;;;;;;10.19;100.00;100333.03;5071431;29;20095;-72
2023/03/19 01:59:34;;;;;;;3.13;1.27;;;;;;;10.09;100.00;100334.28;5079978;29;20094;-72
2023/03/19 02:02:19;;;;;;;5.10;1.42;;;;;;;9.89;100.00;100329.78;5081711;29;20040;-72
2023/03/19 02:04:52;;;;;;;2.70;1.50;;;;;;;9.89;100.00;100340.22;5080192;29;20498;-72
2023/03/19 02:07:24;;;;;;;4.00;1.30;;;;;;;9.84;100.00;100330.88;5073851;29;20537;-73
2023/03/19 02:09:55;;;;;;;2.47;1.45;;;;;;;9.63;100.00;100340.31;5087294;29;20043;-73
2023/03/19 02:12:26;;;;;;;2.60;1.42;;;;;;;9.57;100.00;100342.28;5078041;29;20529;-72
2023/03/19 02:14:56;;;;;;;3.25;1.52;;;;;;;9.47;100.00;100335.69;5097072;29;20032;-73
2023/03/19 02:17:28;;;;;;;2.88;1.40;;;;;;;9.56;100.00;100340.56;5067010;29;20045;-72
2023/03/19 02:20:07;;;;;;;2.72;1.65;;;;;;;9.54;100.00;100347.59;5070343;29;20032;-72
2023/03/19 02:22:51;;;;;;;3.30;1.60;;;;;;;9.62;100.00;100353.41;5079420;29;20048;-73
2023/03/19 02:25:31;;;;;;;2.65;1.30;;;;;;;9.48;100.00;100347.81;5075044;29;20419;-70
2023/03/19 02:28:02;;;;;;;3.75;2.03;;;;;;;9.58;100.00;100349.19;5063440;29;20045;-73
2023/03/19 02:30:33;;;;;;;3.70;1.75;;;;;;;9.58;100.00;100349.19;5070376;29;20028;-72
2023/03/19 02:33:03;;;;;;;3.47;1.42;;;;;;;9.36;100.00;100343.88;5074714;29;20296;-73
2023/03/19 02:35:35;;;;;;;3.72;1.92;;;;;;;9.29;100.00;100350.19;5086479;29;20414;-72
2023/03/19 02:38:06;;;;;;;2.38;1.63;;;;;;;9.58;100.00;100352.66;5066774;29;20494;-71
2023/03/19 02:40:42;;;;;;;2.25;1.60;;;;;;;9.37;100.00;100353.41;5083081;29;20509;-73
2023/03/19 02:43:12;;;;;;;4.65;2.10;;;;;;;9.25;100.00;100358.16;5082255;29;20036;-72
2023/03/19 02:45:43;;;;;;;3.78;2.22;;;;;;;9.50;100.00;100346.84;5078413;29;20403;-72
2023/03/19 02:48:13;;;;;;;5.03;2.58;;;;;;;9.46;100.00;100352.25;5075553;29;20020;-73
2023/03/19 02:50:43;;;;;;;4.55;2.30;;;;;;;9.31;100.00;100352.78;5077371;29;20124;-72
2023/03/19 02:53:14;;;;;;;4.25;2.20;;;;;;;9.29;100.00;100357.19;5082149;29;20032;-71
2023/03/19 02:55:45;;;;;;;4.90;2.45;;;;;;;9.31;100.00;100347.56;5067267;29;20399;-72
2023/03/19 02:58:15;;;;;;;4.53;2.72;;;;;;;9.33;100.00;100358.78;5081742;29;20028;-72
2023/03/19 03:00:45;;;;;;;4.45;2.80;;;;;;;9.37;100.00;100360.38;5077409;29;20482;-72
2023/03/19 03:03:16;;;;;;;5.65;2.35;;;;;;;9.43;100.00;100357.53;5076986;29;20027;-72
2023/03/19 03:05:46;;;;;;;3.95;2.40;;;;;;;9.49;100.00;100371.22;5089931;29;20059;-73
2023/03/19 03:08:17;;;;;;;4.47;2.55;;;;;;;9.37;100.00;100371.66;5080824;29;20372;-73
2023/03/19 03:10:47;;;;;;;4.68;2.30;;;;;;;9.38;100.00;100365.56;5071771;29;20031;-73
2023/03/19 03:13:18;;;;;;;4.60;2.28;;;;;;;9.27;100.00;100366.78;5085031;29;20032;-73
2023/03/19 03:15:48;;;;;;;5.03;2.40;;;;;;;9.12;100.00;100369.94;5085432;29;20035;-72
2023/03/19 03:18:18;;;;;;;4.53;2.47;;;;;;;9.08;100.00;100381.34;5083354;29;20026;-72
2023/03/19 03:20:49;;;;;;;3.92;2.40;;;;;;;8.94;100.00;100375.75;5083026;29;20116;-72
2023/03/19 03:23:20;;;;;;;4.53;2.25;;;;;;;8.87;100.00;100373.38;5082615;29;20028;-72
2023/03/19 03:25:51;;;;;;;6.10;2.45;;;;;;;8.81;100.00;100374.44;5083430;29;20030;-72
2023/03/19 03:28:22;;;;;;;5.32;2.50;;;;;;;8.81;100.00;100376.16;5076343;29;20033;-71
2023/03/19 03:30:58;;;;;;;6.22;2.47;;;;;;;8.81;100.00;100374.44;5074937;28;20028;-72
2023/03/19 03:33:28;;;;;;;3.97;2.47;;;;;;;8.82;100.00;100376.13;5085762;29;20032;-72
2023/03/19 03:35:58;;;;;;;5.10;2.40;;;;;;;8.92;100.00;100377.53;5082472;29;20390;-72
2023/03/19 03:38:31;;;;;;;6.07;2.75;;;;;;;8.93;100.00;100379.22;5086739;29;20110;-72
2023/03/19 03:41:02;;;;;;;5.35;2.80;;;;;;;8.91;100.00;100381.03;5099404;29;20409;-73
2023/03/19 03:43:32;;;;;;;4.43;2.60;;;;;;;8.94;100.00;100386.19;5081968;29;20119;-73
2023/03/19 03:46:03;;;;;;;3.63;2.10;;;;;;;8.92;100.00;100387.13;5082567;29;20043;-72
2023/03/19 03:48:34;;;;;;;5.88;2.40;;;;;;;9.00;100.00;100383.34;5106127;29;20027;-72
2023/03/19 03:51:04;;;;;;;5.30;2.60;;;;;;;9.14;100.00;100389.81;5086032;29;21505;-72
2023/03/19 03:53:35;;;;;;;3.90;2.15;;;;;;;9.26;100.00;100378.13;5085010;29;20450;-73
2023/03/19 03:56:05;;;;;;;4.85;2.40;;;;;;;9.39;100.00;100380.28;5084223;29;20028;-73
2023/03/19 03:58:36;;;;;;;6.63;2.80;;;;;;;9.27;100.00;100385.91;5079368;29;20067;-73
2023/03/19 04:01:07;;;;;;;4.53;2.30;;;;;;;9.30;100.00;100382.34;5071891;29;20427;-73
2023/03/19 04:03:37;;;;;;;4.30;2.40;;;;;;;9.08;100.00;100385.72;5066429;29;20107;-73
2023/03/19 04:06:14;;;;;;;4.55;2.63;;;;;;;9.03;100.00;100387.63;5071693;29;20110;-72
2023/03/19 04:08:45;;;;;;;7.43;2.60;;;;;;;9.06;100.00;100385.75;5075989;29;20476;-72
2023/03/19 04:11:15;;;;;;;5.90;2.38;;;;;;;8.96;100.00;100397.41;5084817;29;20786;-72
2023/03/19 04:13:46;;;;;;;3.88;2.20;;;;;;;8.98;100.00;100385.16;5085490;29;20405;-71
2023/03/19 04:16:16;;;;;;;3.80;2.20;;;;;;;8.92;100.00;100387.94;5102899;29;20490;-72
2023/03/19 04:18:47;;;;;;;5.80;2.55;;;;;;;8.96;100.00;100384.38;5095669;29;20110;-73
2023/03/19 04:21:17;;;;;;;5.07;2.50;;;;;;;9.01;100.00;100390.28;5086911;29;20063;-72
2023/03/19 04:23:47;;;;;;;4.20;2.58;;;;;;;8.90;100.00;100389.75;5073817;29;20554;-72
2023/03/19 04:26:18;;;;;;;4.80;2.50;;;;;;;9.05;100.00;100388.44;5097614;29;20472;-72
2023/03/19 04:28:48;;;;;;;4.40;2.30;;;;;;;9.04;100.00;100387.56;5083160;29;20036;-73
2023/03/19 04:31:18;;;;;;;4.03;2.45;;;;;;;8.90;100.00;100387.16;5088844;29;20028;-73
2023/03/19 04:33:48;;;;;;;4.72;2.45;;;;;;;8.85;100.00;100388.19;5096299;29;20402;-72
2023/03/19 04:36:19;;;;;;;5.35;2.20;;;;;;;8.82;100.00;100391.75;5085797;29;20024;-73
2023/03/19 04:38:50;;;;;;;6.78;2.70;;;;;;;8.71;100.00;100393.00;5079432;29;20064;-72
2023/03/19 04:41:21;;;;;;;4.43;2.35;;;;;;;8.77;100.00;100393.66;5071868;29;20084;-72
2023/03/19 04:43:51;;;;;;;3.83;2.25;;;;;;;8.78;100.00;100392.78;5085379;29;20028;-73
2023/03/19 04:46:22;;;;;;;5.32;2.47;;;;;;;8.70;100.00;100399.13;5097104;29;20065;-73
2023/03/19 04:48:52;;;;;;;3.22;2.03;;;;;;;8.67;100.00;100399.19;5089049;29;20497;-73
2023/03/19 04:51:22;;;;;;;5.88;2.38;;;;;;;8.68;100.00;100393.94;5083906;29;20442;-71
2023/03/19 04:53:53;;;;;;;3.97;2.15;;;;;;;8.63;100.00;100390.63;5084789;29;20032;-70
2023/03/19 04:56:24;;;;;;;6.32;2.13;;;;;;;8.44;100.00;100389.50;5085580;29;20231;-73
2023/03/19 04:58:54;;;;;;;5.47;2.50;;;;;;;8.37;100.00;100393.16;5078472;29;20443;-71
2023/03/19 05:01:25;;;;;;;4.32;2.25;;;;;;;8.52;100.00;100389.25;5076434;29;20039;-72
2023/03/19 05:03:55;;;;;;;3.95;2.30;;;;;;;8.70;100.00;100399.13;5081933;29;20398;-72
2023/03/19 05:06:26;;;;;;;5.47;2.47;;;;;;;8.68;100.00;100386.13;5065944;29;20107;-71
2023/03/19 05:08:56;;;;;;;3.75;2.20;;;;;;;8.77;100.00;100388.47;5081938;29;20036;-72
2023/03/19 05:11:26;;;;;;;6.25;2.40;;;;;;;8.84;100.00;100389.09;5084856;29;20505;-72
2023/03/19 05:13:56;;;;;;;3.95;2.10;;;;;;;8.83;100.00;100388.25;5091707;29;20027;-71
2023/03/19 05:16:27;;;;;;;5.82;2.90;;;;;;;8.86;100.00;100389.91;5087026;29;20025;-72
2023/03/19 05:18:57;;;;;;;4.40;2.50;;;;;;;8.85;100.00;100393.41;5076368;29;20028;-72
2023/03/19 05:21:28;;;;;;;4.05;2.10;;;;;;;8.85;100.00;100385.59;5068891;29;20100;-72
2023/03/19 05:23:58;;;;;;;3.63;2.10;;;;;;;8.74;100.00;100388.53;5084790;29;20028;-72
2023/03/19 05:26:28;;;;;;;3.88;2.22;;;;;;;8.78;100.00;100384.09;5085100;29;20032;-72
2023/03/19 05:28:59;;;;;;;3.85;2.28;;;;;;;8.66;100.00;100389.66;5093530;29;20060;-72
2023/03/19 05:31:29;;;;;;;3.80;2.38;;;;;;;8.66;100.00;100394.88;5087318;29;20031;-73
2023/03/19 05:34:00;;;;;;;5.15;2.35;;;;;;;8.67;100.00;100399.19;5081080;29;20028;-74
2023/03/19 05:36:30;;;;;;;6.85;2.40;;;;;;;8.97;100.00;100396.50;5083742;29;20028;-73
2023/03/19 05:39:01;;;;;;;4.60;2.13;;;;;;;9.00;100.00;100401.59;5084436;29;20625;-73
2023/03/19 05:41:31;;;;;;;7.68;2.40;;;;;;;9.00;100.00;100398.13;5084473;29;20107;-73
2023/03/19 05:44:01;;;;;;;4.47;2.15;;;;;;;9.13;100.00;100397.72;5088744;29;20080;-72
2023/03/19 05:46:31;;;;;;;4.50;2.25;;;;;;;8.96;100.00;100400.00;5083257;29;20119;-73
2023/03/19 05:49:02;;;;;;;4.53;2.30;;;;;;;9.05;100.00;100394.47;5086691;29;20402;-71
2023/03/19 05:51:32;;;;;;;3.88;2.47;;;;;;;8.97;100.00;100401.72;5103321;29;20031;-73
2023/03/19 05:54:03;;;;;;;3.75;2.25;;;;;;;8.91;100.00;100401.88;5103683;29;20032;-73
2023/03/19 05:56:33;;;;;;;5.13;2.20;;;;;;;9.13;100.00;100406.38;5093556;29;20072;-73
2023/03/19 05:59:03;;;;;;;3.60;2.08;;;;;;;9.28;100.00;100408.47;5071322;29;20083;-73
2023/03/19 06:01:34;;;;;;;4.65;2.50;;;;;;;9.31;100.00;100410.13;5083645;29;20036;-72
2023/03/19 06:04:04;;;;;;;4.28;2.78;;;;;;;9.25;100.00;100408.59;5066345;29;20542;-73
2023/03/19 06:06:35;;;;;;;3.80;2.13;;;;;;;9.24;100.00;100414.69;5081084;29;20487;-73
2023/03/19 06:09:05;;;;;;;3.38;2.10;;;;;;;9.22;100.00;100413.91;5091647;29;20087;-73
2023/03/19 06:11:38;;;;;;;3.10;2.10;;;;;;;9.30;100.00;100411.03;5098694;29;20027;-72
2023/03/19 06:14:08;;;;;;;3.75;2.30;;;;;;;9.27;100.00;100411.13;5101729;29;20406;-72
2023/03/19 06:16:39;;;;;;;4.22;2.58;;;;;;;9.51;100.00;100410.31;5096715;29;20104;-72
2023/03/19 06:19:09;;;;;;;4.47;2.58;;;;;;;9.59;100.00;100405.69;5097534;29;20402;-72
2023/03/19 06:21:40;;;;;;;6.30;2.70;;;;;;;9.78;100.00;100409.34;5063944;29;20036;-72
2023/03/19 06:24:10;;;;;;;5.93;2.85;;;;;;;9.69;100.00;100401.84;5069439;29;20493;-72
2023/03/19 06:26:40;;;;;;;4.72;2.47;;;;;;;9.84;100.00;100414.38;5088824;29;20027;-73
2023/03/19 06:29:11;;;;;;;3.55;2.30;;;;;;;10.02;100.00;100416.38;5092188;29;20439;-73
2023/03/19 06:31:41;;;;;;;4.80;2.28;;;;;;;10.06;100.00;100417.94;5077974;29;20052;-73
2023/03/19 06:34:12;;;;;;;5.45;2.13;;;;;;;10.23;100.00;100428.63;5080983;29;20032;-74
2023/03/19 06:36:42;;;;;;;3.90;2.17;;;;;;;10.38;100.00;100428.91;5090009;29;20079;-73
2023/03/19 06:39:13;;;;;;;3.03;2.00;;;;;;;10.55;100.00;100430.91;5071294;29;20028;-73
2023/03/19 06:41:43;;;;;;;3.58;2.20;;;;;;;10.54;100.00;100429.22;5082704;29;20036;-72
2023/03/19 06:44:13;;;;;;;4.45;2.20;;;;;;;10.64;100.00;100431.41;5097030;29;20035;-73
2023/03/19 06:46:44;;;;;;;4.22;2.20;;;;;;;10.47;100.00;100425.97;5080744;29;20135;-73
2023/03/19 06:49:14;;;;;;;4.70;2.22;;;;;;;10.70;100.00;100430.34;5076774;29;20104;-73
2023/03/19 06:51:44;;;;;;;4.82;2.10;;;;;;;10.88;100.00;100434.84;5063533;29;20108;-73
2023/03/19 06:54:15;;;;;;;4.57;2.30;;;;;;;11.14;100.00;100438.97;5064280;29;20128;-73
2023/03/19 06:56:46;;;;;;;5.25;2.10;;;;;;;11.26;100.00;100433.25;5064953;29;20040;-72
2023/03/19 06:59:16;;;;;;;5.22;2.15;;;;;;;11.33;100.00;100434.75;5072985;29;20032;-73
2023/03/19 07:01:47;;;;;;;3.80;2.10;;;;;;;11.48;100.00;100431.47;5082902;29;20028;-73
2023/03/19 07:04:17;;;;;;;4.38;2.05;;;;;;;11.40;100.00;100443.16;5088949;29;20036;-73
2023/03/19 07:06:47;;;;;;;3.25;2.20;;;;;;;11.45;100.00;100439.44;5096789;29;20039;-72
2023/03/19 07:09:18;;;;;;;3.92;2.20;;;;;;;11.59;100.00;100434.53;5085262;28;20486;-72
2023/03/19 07:11:48;;;;;;;4.45;1.98;;;;;;;11.69;100.00;100443.72;5096245;29;20046;-70
2023/03/19 07:14:18;;;;;;;8.63;2.40;;;;;;;11.86;100.00;100451.69;5083210;29;20120;-73
2023/03/19 07:16:49;;;;;;;3.88;1.70;;;;;;;12.08;100.00;100451.59;5079439;29;20107;-72
2023/03/19 07:19:19;;;;;;;4.30;1.95;;;;;;;12.16;100.00;100450.34;5086282;29;20027;-73
2023/03/19 07:21:49;;;;;;;5.10;1.98;;;;;;;12.26;100.00;100454.28;5088933;29;20113;-72
2023/03/19 07:24:20;;;;;;;3.05;1.88;;;;;;;12.45;100.00;100462.19;5087231;29;20095;-72
2023/03/19 07:26:50;;;;;;;3.42;2.10;;;;;;;12.48;100.00;100457.63;5087870;29;20032;-73
2023/03/19 07:29:20;;;;;;;4.47;2.20;;;;;;;12.76;100.00;100460.72;5092276;29;20512;-73
2023/03/19 07:31:51;;;;;;;3.22;2.10;;;;;;;13.36;100.00;100468.31;5076336;29;20435;-73
2023/03/19 07:34:22;;;;;;;3.72;1.92;;;;;;;13.66;100.00;100472.06;5079956;29;20028;-71
2023/03/19 07:36:52;;;;;;;2.70;1.65;;;;;;;14.51;100.00;100457.13;5087893;29;20035;-71
2023/03/19 07:39:22;;;;;;;3.10;1.70;;;;;;;14.15;100.00;100469.53;5100649;29;20134;-71
2023/03/19 07:41:52;;;;;;;5.00;1.80;;;;;;;13.81;100.00;100477.44;5082414;29;20068;-71
2023/03/19 07:44:23;;;;;;;2.80;1.60;;;;;;;13.54;100.00;100472.69;5079414;29;20078;-71
2023/03/19 07:46:53;;;;;;;3.15;1.60;;;;;;;13.20;100.00;100491.84;5081358;29;20040;-71
2023/03/19 07:49:24;;;;;;;4.18;1.88;;;;;;;13.02;100.00;100486.59;5088077;29;20073;-70
2023/03/19 07:51:55;;;;;;;4.60;1.98;;;;;;;12.87;100.00;100486.44;5075838;28;20040;-70
2023/03/19 07:54:25;;;;;;;5.88;2.10;;;;;;;12.78;100.00;100492.13;5071762;29;20036;-70
2023/03/19 07:56:55;;;;;;;5.25;2.40;;;;;;;12.61;100.00;100500.72;5084528;29;20031;-71
2023/03/19 07:59:26;;;;;;;4.88;1.92;;;;;;;12.50;100.00;100500.34;5077885;29;20541;-71
2023/03/19 08:01:56;;;;;;;5.30;1.92;;;;;;;12.32;100.00;100509.03;5064474;29;20032;-71
2023/03/19 08:04:26;;;;;;;4.22;2.05;;;;;;;12.35;100.00;100500.19;5070510;29;20032;-72
2023/03/19 08:06:57;;;;;;;3.70;1.98;;;;;;;12.31;100.00;100512.56;5076131;29;20096;-70
2023/03/19 08:09:27;;;;;;;4.65;2.50;;;;;;;12.22;100.00;100523.47;5075096;29;20036;-71
2023/03/19 08:11:57;;;;;;;3.70;2.20;;;;;;;12.36;100.00;100515.88;5068174;29;20044;-73
2023/03/19 08:14:27;;;;;;;3.90;2.45;;;;;;;12.46;100.00;100534.66;5072132;29;20505;-72
2023/03/19 08:16:58;;;;;;;5.75;2.90;;;;;;;12.55;100.00;100521.13;5075723;29;20032;-72
2023/03/19 08:19:28;;;;;;;5.78;2.80;;;;;;;12.51;100.00;100530.91;5075872;29;20051;-71
2023/03/19 08:21:59;;;;;;;3.92;2.50;;;;;;;12.44;100.00;100534.72;5061618;29;20514;-72
2023/03/19 08:24:29;;;;;;;4.40;2.42;;;;;;;12.44;100.00;100534.72;5073304;29;20082;-72
2023/03/19 08:26:59;;;;;;;4.25;2.60;;;;;;;12.50;100.00;100537.06;5073376;29;20565;-72
2023/03/19 08:29:30;;;;;;;4.43;2.42;;;;;;;12.42;100.00;100541.78;5073032;29;20039;-72
2023/03/19 08:32:00;;;;;;;4.55;2.53;;;;;;;12.33;100.00;100544.78;5069629;29;20043;-72
2023/03/19 08:34:31;;;;;;;3.50;2.40;;;;;;;12.21;100.00;100557.56;5075180;29;20043;-71
2023/03/19 08:37:02;;;;;;;4.03;2.53;;;;;;;12.09;100.00;100560.75;5087786;29;20407;-72
2023/03/19 08:39:32;;;;;;;3.50;2.30;;;;;;;12.07;100.00;100563.41;5077162;29;20103;-72
2023/03/19 08:42:03;;;;;;;4.40;2.58;;;;;;;11.93;100.00;100565.75;5070187;29;20674;-72
2023/03/19 08:44:33;;;;;;;3.47;1.90;;;;;;;11.79;100.00;100570.69;5071260;29;20065;-72
2023/03/19 08:47:03;;;;;;;2.38;1.30;;;;;;;11.68;100.00;100572.91;5074915;29;20037;-72
2023/03/19 08:49:33;;;;;;;2.88;1.65;;;;;;;11.55;100.00;100574.25;5076499;29;20036;-71
2023/03/19 08:52:05;;;;;;;2.17;1.10;;;;;;;11.57;100.00;100579.44;5070759;29;20148;-71
2023/03/19 08:54:35;;;;;;;4.18;1.50;;;;;;;11.58;100.00;100576.78;5081762;28;20052;-72
2023/03/19 08:57:06;;;;;;;3.53;1.20;;;;;;;11.32;100.00;100574.31;5076615;29;20044;-72
2023/03/19 08:59:36;;;;;;;1.80;1.23;;;;;;;11.32;100.00;100569.09;5076388;29;20631;-72
2023/03/19 09:02:11;;;;;;;3.40;1.13;;;;;;;11.23;100.00;100551.13;5070470;29;20048;-72
2023/03/19 09:04:44;;;;;;;3.70;1.30;;;;;;;11.15;100.00;100542.72;5068191;29;20443;-72
2023/03/19 09:07:15;;;;;;;2.83;0.90;;;;;;;11.32;100.00;100547.28;5072585;29;20574;-72
2023/03/19 09:09:45;;;;;;;3.05;0.90;;;;;;;11.40;100.00;100546.06;5074673;29;20046;-72
2023/03/19 09:12:16;;;;;;;2.58;1.20;;;;;;;11.80;100.00;100534.91;5069053;29;20110;-72
2023/03/19 09:14:46;;;;;;;2.58;1.30;;;;;;;12.29;100.00;100531.91;5080152;28;20036;-72
2023/03/19 09:17:17;;;;;;;5.18;2.03;;;;;;;12.77;100.00;100527.97;5070871;29;20481;-72
2023/03/19 09:19:47;;;;;;;5.03;2.15;;;;;;;13.79;100.00;100528.34;5077849;29;20046;-72
2023/03/19 09:22:17;;;;;;;2.47;1.10;;;;;;;14.65;100.00;100525.63;5081102;29;20513;-72
2023/03/19 09:24:47;;;;;;;1.80;0.93;;;;;;;14.87;100.00;100523.53;5070996;29;20036;-72
2023/03/19 09:27:19;;;;;;;2.63;0.70;;;;;;;14.88;100.00;100514.72;5068587;29;20131;-73
2023/03/19 09:29:49;;;;;;;2.47;0.70;;;;;;;15.01;100.00;100511.31;5075050;29;20167;-72
2023/03/19 09:32:20;;;;;;;1.27;0.60;;;;;;;15.28;100.00;100508.94;5071433;29;20028;-73
2023/03/19 09:34:50;;;;;;;2.40;0.70;;;;;;;15.35;100.00;100499.81;5070379;29;20051;-72
2023/03/19 09:37:21;;;;;;;1.67;0.90;;;;;;;15.03;100.00;100498.91;5075280;29;20054;-73
2023/03/19 09:39:51;;;;;;;2.08;1.10;;;;;;;15.39;100.00;100496.91;5080366;29;20547;-72
2023/03/19 09:42:40;;;;;;;2.22;0.60;;;;;;;15.45;100.00;100500.97;5075547;28;20028;-73
2023/03/19 09:45:15;;;;;;;1.20;0.68;;;;;;;14.87;100.00;100508.59;5074105;29;20060;-73
2023/03/19 09:47:52;;;;;;;1.77;0.50;;;;;;;15.39;100.00;100507.44;5079886;29;20662;-73
2023/03/19 09:50:27;;;;;;;1.15;0.50;;;;;;;15.31;100.00;100503.53;5073703;29;20539;-73
2023/03/19 09:53:21;;;;;;;3.72;0.55;;;;;;;15.41;100.00;100508.22;5077714;29;20039;-74
2023/03/19 09:55:53;;;;;;;0.82;0.50;;;;;;;15.40;100.00;100503.88;5072526;29;20036;-73
2023/03/19 09:58:31;;;;;;;1.70;0.43;;;;;;;15.40;100.00;100509.13;5084728;29;20042;-73
2023/03/19 10:01:02;;;;;;;1.65;0.50;;;;;;;15.34;100.00;100498.97;5079738;29;20054;-72
2023/03/19 10:03:40;;;;;;;3.10;0.80;;;;;;;15.57;100.00;100505.56;5085304;29;20106;-73
2023/03/19 10:06:33;;;;;;;0.85;0.50;;;;;;;15.77;100.00;100507.91;5081022;29;20028;-73
2023/03/19 10:09:41;;;;;;;1.10;0.55;;;;;;;15.85;100.00;100506.53;5087483;29;20059;-73
2023/03/19 10:12:33;;;;;;;0.80;0.40;;;;;;;15.71;100.00;100510.91;5064242;29;20507;-73
2023/03/19 10:15:13;;;;;;;1.17;0.57;;;;;;;15.67;100.00;100502.31;5054290;29;20032;-73
2023/03/19 10:17:54;;;;;;;0.75;0.43;;;;;;;15.89;100.00;100509.84;5086923;29;20502;-73
2023/03/19 10:20:55;;;;;;;2.33;0.70;;;;;;;15.94;100.00;100508.63;5082151;29;20036;-73
2023/03/19 10:23:49;;;;;;;2.05;0.90;;;;;;;16.06;100.00;100505.25;5073417;29;20498;-73
2023/03/19 10:26:25;;;;;;;1.58;0.70;;;;;;;16.00;100.00;100510.91;5065702;29;20415;-72
2023/03/19 10:29:08;;;;;;;2.08;0.60;;;;;;;15.85;100.00;100516.22;5072468;29;20048;-72
2023/03/19 10:31:43;;;;;;;1.05;0.60;;;;;;;16.05;100.00;100506.19;5074042;29;20028;-72
2023/03/19 10:34:30;;;;;;;1.20;0.70;;;;;;;16.24;100.00;100503.34;5083914;29;20138;-73
2023/03/19 10:37:04;;;;;;;1.40;0.80;;;;;;;16.08;100.00;100503.38;5062283;29;20059;-71
2023/03/19 10:39:36;;;;;;;3.22;1.02;;;;;;;16.02;100.00;100501.13;5068566;29;20470;-72
2023/03/19 10:42:33;;;;;;;1.67;0.80;;;;;;;16.23;100.00;100497.19;5071241;29;20403;-73
2023/03/19 10:45:15;;;;;;;1.92;0.98;;;;;;;16.13;100.00;100496.06;5072879;29;20168;-72
2023/03/19 10:47:46;;;;;;;2.85;0.82;;;;;;;16.08;100.00;100508.66;5080652;29;20038;-72
2023/03/19 10:50:22;;;;;;;1.50;0.60;;;;;;;16.18;100.00;100496.63;5082365;29;20557;-72
2023/03/19 10:53:01;;;;;;;;;;;;;;;16.13;98.30;100506.63;5061401;29;20119;-73
2023/03/19 10:55:32;;;;;;;1.05;0.75;;;;;;;16.07;98.95;100500.84;5059208;29;19954;-72
2023/03/19 10:58:13;;;;;;;2.65;1.20;;;;;;;16.25;100.00;100505.88;5053250;29;20134;-72
2023/03/19 11:00:48;;;;;;;1.33;0.70;;;;;;;16.35;99.83;100498.31;5072113;29;20503;-72
2023/03/19 11:03:48;;;;;;;1.45;0.70;;;;;;;16.22;97.06;100500.78;5071955;29;20028;-72
2023/03/19 11:06:22;;;;;;;0.77;0.50;;;;;;;16.30;99.46;100495.03;5071527;29;20298;-71
2023/03/19 11:09:01;;;;;;;2.30;0.82;;;;;;;16.46;99.00;100494.06;5070625;29;20545;-71
2023/03/19 11:11:34;;;;;;;2.88;0.75;;;;;;;16.49;100.00;100498.31;5067631;29;20036;-72
2023/03/19 11:14:30;;;;;;;0.52;0.50;;;;;;;16.51;98.39;100502.56;5076788;29;20100;-72
2023/03/19 11:17:28;;;;;;;2.05;0.70;;;;;;;16.42;95.32;100497.81;5065741;29;20036;-71
2023/03/19 11:20:06;;;;;;;3.20;0.80;;;;;;;16.49;97.67;100499.16;5073013;29;20359;-72
2023/03/19 11:22:38;;;;;;;0.98;0.60;;;;;;;16.54;98.42;100504.16;5070612;29;20036;-73
2023/03/19 11:25:39;;;;;;;1.05;0.55;;;;;;;16.48;96.86;100505.38;5075586;29;20046;-72
2023/03/19 11:28:14;;;;;;;1.98;0.60;;;;;;;16.58;96.70;100506.50;5079386;29;20191;-72
2023/03/19 11:31:22;;;;;;;1.20;0.55;;;;;;;16.67;97.80;100500.69;5067956;29;20482;-72
2023/03/19 11:34:22;;;;;;;1.88;0.90;;;;;;;17.05;98.44;100502.63;5074598;29;20506;-72
2023/03/19 11:37:14;;;;;;;0.90;0.70;;;;;;;17.22;95.33;100501.56;5065440;29;20064;-72
2023/03/19 11:40:03;;;;;;;1.70;0.80;;;;;;;17.17;93.57;100493.06;5070927;29;20135;-72
2023/03/19 11:42:52;;;;;;;1.75;0.90;;;;;;;17.32;92.91;100492.94;5070952;29;20542;-72
2023/03/19 11:45:53;;;;;;;1.35;0.68;;;;;;;17.46;93.90;100492.09;5067967;29;20078;-72
2023/03/19 11:48:41;;;;;;;2.20;0.70;;;;;;;17.24;91.03;100489.09;5075263;29;20056;-72